Time;durP1;ratioP1;P1;durP2;ratioP2;P2;SDS_P1;SDS_P2;PMS_P1;PMS_P2;Temp;Humidity;BMP_temperature;BMP_pressure;BME280_temperature;BME280_humidity;BME280_pressure;Samples;Min_cycle;Max_cycle;Signal;HPM_P1;HPM_P2
2023/01/22 00:00:45;;;;;;;2.73;2.00;;;21.50;38.50;;;;;;5041622;28;87794;-61
2023/01/22 00:03:13;;;;;;;1.60;1.00;;;21.50;38.60;;;;;;5042139;28;87570;-61
2023/01/22 00:05:41;;;;;;;2.77;2.30;;;21.50;38.50;;;;;;5042614;28;87127;-61
2023/01/22 00:08:09;;;;;;;2.43;1.60;;;21.50;38.50;;;;;;5041812;28;89161;-61
2023/01/22 00:10:37;;;;;;;1.80;1.57;;;21.50;38.50;;;;;;5043250;27;87772;-61
2023/01/22 00:13:05;;;;;;;1.43;1.33;;;21.40;38.50;;;;;;5042392;28;87433;-61
2023/01/22 00:15:33;;;;;;;2.53;1.90;;;21.40;39.20;;;;;;5042148;27;86958;-59
2023/01/22 00:18:03;;;;;;;2.37;1.60;;;21.40;38.50;;;;;;5041436;28;89035;-61
2023/01/22 00:20:31;;;;;;;2.50;1.90;;;21.40;38.60;;;;;;5042304;27;89864;-61
2023/01/22 00:22:59;;;;;;;3.43;1.57;;;21.40;38.60;;;;;;5042275;28;86991;-60
2023/01/22 00:25:27;;;;;;;1.57;1.47;;;21.30;38.50;;;;;;5041740;28;87090;-60
2023/01/22 00:27:55;;;;;;;4.37;1.47;;;21.30;38.40;;;;;;5042003;28;88079;-60
2023/01/22 00:30:23;;;;;;;2.70;1.20;;;21.30;38.40;;;;;;5041847;28;88777;-60
2023/01/22 00:32:51;;;;;;;1.67;1.57;;;21.30;38.40;;;;;;5041818;27;87075;-60
2023/01/22 00:35:20;;;;;;;6.70;1.90;;;21.30;39.10;;;;;;5042223;28;86770;-60
2023/01/22 00:37:48;;;;;;;2.50;1.47;;;21.30;38.50;;;;;;5041890;28;88147;-60
2023/01/22 00:40:17;;;;;;;1.50;1.20;;;21.30;38.50;;;;;;5042076;27;89138;-60
2023/01/22 00:42:45;;;;;;;2.13;1.90;;;21.20;38.40;;;;;;5041868;28;88659;-59
2023/01/22 00:45:13;;;;;;;1.50;1.40;;;21.20;38.40;;;;;;5041736;28;87184;-60
2023/01/22 00:47:41;;;;;;;2.57;1.67;;;21.20;38.40;;;;;;5041318;27;88094;-60
2023/01/22 00:50:11;;;;;;;1.83;1.20;;;21.20;38.40;;;;;;5041360;27;87138;-60
2023/01/22 00:52:40;;;;;;;1.97;1.63;;;21.10;38.30;;;;;;5041772;27;87264;-60
2023/01/22 00:55:09;;;;;;;2.57;1.73;;;21.10;38.30;;;;;;5040796;27;87583;-60
2023/01/22 00:57:37;;;;;;;1.47;1.00;;;21.10;38.40;;;;;;5041204;27;88092;-62
2023/01/22 01:00:06;;;;;;;1.53;1.30;;;21.10;38.40;;;;;;5039730;27;88978;-60
2023/01/22 01:03:25;;;;;;;1.23;1.10;;;21.10;38.40;;;;;;5041030;28;87586;-61
2023/01/22 01:05:23;;;;;;;2.20;1.20;;;21.10;38.40;;;;;;5041437;28;87118;-60
2023/01/22 01:07:52;;;;;;;1.37;1.27;;;21.00;38.30;;;;;;5040753;28;90183;-60
2023/01/22 01:10:20;;;;;;;3.33;1.50;;;21.00;38.40;;;;;;5041371;28;88651;-62
2023/01/22 01:12:48;;;;;;;2.13;1.53;;;21.00;38.40;;;;;;5041864;27;87047;-61
2023/01/22 01:15:16;;;;;;;1.67;1.37;;;21.00;38.40;;;;;;5040736;28;87109;-61
2023/01/22 01:17:45;;;;;;;1.67;1.20;;;21.00;38.40;;;;;;5040972;28;88257;-59
2023/01/22 01:20:13;;;;;;;3.03;1.30;;;21.00;38.40;;;;;;5040168;28;87785;-59
2023/01/22 01:22:41;;;;;;;1.90;1.37;;;20.90;38.30;;;;;;5041478;27;87283;-59
2023/01/22 01:25:10;;;;;;;1.27;1.17;;;20.90;38.30;;;;;;5040205;27;86490;-59
2023/01/22 01:27:38;;;;;;;1.27;1.17;;;20.90;38.30;;;;;;5048328;27;87847;-60
2023/01/22 01:30:07;;;;;;;1.40;1.30;;;20.90;38.30;;;;;;5046364;27;87732;-59
2023/01/22 01:32:35;;;;;;;1.33;1.23;;;20.90;38.40;;;;;;5041039;27;88003;-59
2023/01/22 01:35:04;;;;;;;1.80;1.23;;;20.90;38.40;;;;;;5040395;28;87063;-58
2023/01/22 01:37:32;;;;;;;2.10;1.43;;;20.90;38.30;;;;;;5040053;27;87911;-58
2023/01/22 01:40:00;;;;;;;1.87;1.00;;;20.80;38.30;;;;;;5032326;28;88770;-54
2023/01/22 01:42:31;;;;;;;2.53;1.20;;;20.90;38.40;;;;;;5040937;28;86898;-56
2023/01/22 01:45:21;;;;;;;1.87;1.20;;;20.80;38.40;;;;;;5041595;27;87487;-54
2023/01/22 01:47:51;;;;;;;2.50;1.53;;;20.80;38.40;;;;;;5040220;28;88343;-54
2023/01/22 01:50:19;;;;;;;1.23;0.90;;;20.90;38.50;;;;;;5039466;27;87844;-55
2023/01/22 01:52:47;;;;;;;1.67;1.40;;;21.00;38.80;;;;;;5040197;27;87069;-55
2023/01/22 01:55:16;;;;;;;2.03;1.73;;;21.00;38.80;;;;;;5039965;27;87389;-54
2023/01/22 01:57:45;;;;;;;1.70;1.60;;;21.20;39.00;;;;;;5037796;28;89329;-55
2023/01/22 02:00:13;;;;;;;2.13;1.63;;;21.40;39.30;;;;;;5039419;28;88767;-55
2023/01/22 02:02:42;;;;;;;2.20;1.63;;;21.50;39.40;;;;;;5031107;27;87094;-57
2023/01/22 02:05:10;;;;;;;3.00;1.50;;;21.70;39.60;;;;;;5040386;28;86985;-54
2023/01/22 02:07:38;;;;;;;1.77;1.67;;;21.90;39.80;;;;;;5039867;28;88140;-54
2023/01/22 02:10:06;;;;;;;2.17;1.17;;;22.10;40.10;;;;;;5040092;27;87981;-54
2023/01/22 02:12:34;;;;;;;2.57;1.90;;;22.40;40.40;;;;;;5038316;27;87582;-54
2023/01/22 02:15:04;;;;;;;1.70;1.43;;;22.60;40.60;;;;;;5039244;28;86274;-55
2023/01/22 02:17:32;;;;;;;1.93;1.50;;;22.90;40.90;;;;;;5040160;27;87961;-53
2023/01/22 02:20:00;;;;;;;2.30;1.40;;;23.10;41.10;;;;;;5040215;27;87833;-54
2023/01/22 02:22:30;;;;;;;1.73;1.50;;;23.30;42.10;;;;;;5039839;27;87927;-54
2023/01/22 02:24:59;;;;;;;1.17;1.07;;;23.60;41.70;;;;;;5033089;28;87263;-54
2023/01/22 02:27:27;;;;;;;2.27;1.23;;;23.80;42.00;;;;;;5037775;28;88459;-55
2023/01/22 02:29:54;;;;;;;1.70;1.50;;;23.90;42.30;;;;;;5039962;27;87048;-54
2023/01/22 02:32:22;;;;;;;3.03;1.80;;;24.10;42.50;;;;;;5039635;28;86997;-54
2023/01/22 02:34:50;;;;;;;2.07;1.47;;;24.20;42.80;;;;;;5039842;27;87116;-55
2023/01/22 02:37:18;;;;;;;1.73;1.47;;;24.30;43.00;;;;;;5038026;28;88170;-53
2023/01/22 02:39:48;;;;;;;1.70;1.40;;;24.40;43.40;;;;;;5039158;28;88882;-54
2023/01/22 02:42:16;;;;;;;2.30;1.70;;;24.40;43.70;;;;;;5036906;27;87063;-54
2023/01/22 02:44:44;;;;;;;2.27;1.53;;;24.40;44.00;;;;;;5021376;28;86918;-54
2023/01/22 02:47:12;;;;;;;1.43;1.23;;;24.40;44.90;;;;;;5039275;28;90121;-54
2023/01/22 02:49:40;;;;;;;3.33;1.67;;;24.40;44.60;;;;;;5039537;27;87474;-55
2023/01/22 02:52:08;;;;;;;2.00;1.40;;;24.50;44.90;;;;;;5027796;28;87188;-55
2023/01/22 02:54:36;;;;;;;1.63;1.50;;;24.50;45.10;;;;;;5039567;28;87022;-55
2023/01/22 02:57:05;;;;;;;1.60;1.27;;;24.60;45.40;;;;;;5038201;28;89132;-56
2023/01/22 02:59:34;;;;;;;1.77;1.50;;;24.70;45.60;;;;;;5038803;28;87899;-54
2023/01/22 03:02:02;;;;;;;1.93;1.67;;;24.80;45.80;;;;;;5038429;28;87045;-54
2023/01/22 03:04:30;;;;;;;2.10;1.73;;;24.90;46.00;;;;;;5039646;28;86643;-55
2023/01/22 03:06:58;;;;;;;2.37;1.33;;;24.90;46.20;;;;;;5038344;27;88232;-55
2023/01/22 03:09:26;;;;;;;1.90;1.47;;;24.90;46.30;;;;;;5057115;27;87876;-55
2023/01/22 03:11:54;;;;;;;2.50;1.03;;;24.90;46.40;;;;;;5036084;27;88035;-55
2023/01/22 03:22:40;;;;;;;1.20;1.10;;;25.00;47.40;;;;;;5019115;28;86960;-54
2023/01/22 03:25:08;;;;;;;1.17;0.90;;;25.10;46.70;;;;;;5027015;28;87671;-55
2023/01/22 03:27:36;;;;;;;0.83;0.83;;;25.20;46.70;;;;;;5042035;28;89185;-54
2023/01/22 03:30:07;;;;;;;0.80;0.80;;;25.30;46.60;;;;;;5042169;27;87561;-54
2023/01/22 03:32:35;;;;;;;1.13;0.90;;;25.40;46.50;;;;;;5042425;28;87112;-55
2023/01/22 03:35:03;;;;;;;1.00;0.80;;;25.50;46.40;;;;;;5061303;27;87214;-55
2023/01/22 03:37:31;;;;;;;0.70;0.70;;;25.60;46.30;;;;;;5041670;28;90082;-55
2023/01/22 03:39:59;;;;;;;0.60;0.60;;;25.70;46.20;;;;;;5042085;27;87604;-55
2023/01/22 03:42:27;;;;;;;2.33;0.70;;;25.70;46.10;;;;;;5042383;28;87024;-55
2023/01/22 03:44:55;;;;;;;0.80;0.80;;;25.70;46.00;;;;;;5042281;27;86923;-56
2023/01/22 03:47:24;;;;;;;1.97;0.80;;;25.80;46.00;;;;;;5042164;28;89192;-55
2023/01/22 03:49:52;;;;;;;0.50;0.50;;;25.70;45.90;;;;;;5041738;28;88940;-54
2023/01/22 03:52:20;;;;;;;0.50;0.50;;;25.70;45.90;;;;;;5042342;27;87118;-55
2023/01/22 03:54:48;;;;;;;0.63;0.60;;;25.70;45.90;;;;;;5042858;28;86355;-54
2023/01/22 03:57:16;;;;;;;0.93;0.80;;;25.70;46.50;;;;;;5042528;28;88050;-55
2023/01/22 03:59:44;;;;;;;0.50;0.50;;;25.70;45.80;;;;;;5042104;27;87795;-54
2023/01/22 04:02:12;;;;;;;0.50;0.50;;;25.70;45.80;;;;;;5040657;28;87991;-55
2023/01/22 04:04:43;;;;;;;0.87;0.80;;;25.70;45.70;;;;;;5042508;28;87134;-54
2023/01/22 04:07:11;;;;;;;0.60;0.60;;;25.70;45.70;;;;;;5041527;27;88244;-55
2023/01/22 04:09:39;;;;;;;1.47;0.60;;;25.70;45.60;;;;;;5042083;28;88902;-55
2023/01/22 04:12:07;;;;;;;1.23;1.03;;;25.70;45.50;;;;;;5041695;28;87109;-55
2023/01/22 04:14:35;;;;;;;0.50;0.50;;;25.70;45.50;;;;;;5041732;28;88622;-55
2023/01/22 04:17:03;;;;;;;0.40;0.30;;;25.70;45.30;;;;;;5041655;28;87852;-55
2023/01/22 04:19:31;;;;;;;0.60;0.50;;;25.60;45.30;;;;;;5041844;27;87969;-55
2023/01/22 04:22:01;;;;;;;0.60;0.60;;;25.60;45.30;;;;;;5042461;28;89205;-55
2023/01/22 04:24:29;;;;;;;0.40;0.40;;;25.60;45.20;;;;;;5040939;27;87096;-55
2023/01/22 04:26:57;;;;;;;0.63;0.33;;;25.50;45.20;;;;;;5041126;28;89062;-55
2023/01/22 04:29:25;;;;;;;0.60;0.60;;;25.50;45.20;;;;;;5041221;28;88946;-55
2023/01/22 04:31:53;;;;;;;0.47;0.47;;;25.40;45.20;;;;;;5040900;28;87175;-55
2023/01/22 04:34:21;;;;;;;0.70;0.50;;;25.40;45.10;;;;;;5041507;28;87125;-54
2023/01/22 04:36:48;;;;;;;0.40;0.40;;;25.40;45.10;;;;;;5039956;28;89313;-55
2023/01/22 04:39:18;;;;;;;2.50;0.80;;;25.40;45.00;;;;;;5041291;28;88963;-55
2023/01/22 04:41:46;;;;;;;1.07;0.97;;;25.50;44.90;;;;;;5041204;28;87409;-55
2023/01/22 04:44:14;;;;;;;0.87;0.77;;;25.60;44.80;;;;;;5039730;28;86812;-59
2023/01/22 04:46:42;;;;;;;0.40;0.40;;;25.70;44.70;;;;;;5039556;28;89229;-59
2023/01/22 04:49:10;;;;;;;0.53;0.50;;;25.70;44.40;;;;;;5040800;28;88892;-59
2023/01/22 04:51:38;;;;;;;0.50;0.50;;;25.80;44.20;;;;;;5040113;28;88092;-60
2023/01/22 04:54:06;;;;;;;0.50;0.50;;;25.80;43.90;;;;;;5039614;28;87448;-59
2023/01/22 04:56:35;;;;;;;0.80;0.60;;;25.80;43.80;;;;;;5040741;28;88132;-59
2023/01/22 04:59:03;;;;;;;0.40;0.40;;;25.70;43.40;;;;;;5040911;28;89154;-59
2023/01/22 05:01:31;;;;;;;0.47;0.47;;;25.70;43.30;;;;;;5040154;28;87046;-59
2023/01/22 05:04:01;;;;;;;0.73;0.50;;;25.70;43.20;;;;;;5036815;28;87052;-59
2023/01/22 05:06:29;;;;;;;0.60;0.60;;;25.60;43.00;;;;;;5041035;27;88179;-60
2023/01/22 05:08:57;;;;;;;0.50;0.47;;;25.50;42.80;;;;;;5041349;27;88856;-59
2023/01/22 05:11:25;;;;;;;0.67;0.40;;;25.40;42.70;;;;;;5040789;28;87076;-59
2023/01/22 05:13:55;;;;;;;0.73;0.30;;;25.40;42.60;;;;;;5041131;28;87041;-59
2023/01/22 05:16:23;;;;;;;0.33;0.33;;;25.30;42.40;;;;;;5040254;27;89004;-58
2023/01/22 05:18:51;;;;;;;0.50;0.50;;;25.20;42.30;;;;;;5040689;27;88893;-59
2023/01/22 05:21:19;;;;;;;0.40;0.40;;;25.10;42.20;;;;;;5040105;27;87122;-59
2023/01/22 05:23:47;;;;;;;0.57;0.43;;;25.10;42.10;;;;;;5040813;27;87069;-60
2023/01/22 05:26:15;;;;;;;0.30;0.30;;;25.00;42.00;;;;;;5040507;28;89103;-59
2023/01/22 05:28:43;;;;;;;0.20;0.20;;;24.90;42.50;;;;;;5040753;28;88815;-59
2023/01/22 05:31:12;;;;;;;0.40;0.40;;;24.90;41.70;;;;;;5040375;27;87208;-59
2023/01/22 05:33:41;;;;;;;0.60;0.50;;;24.80;41.60;;;;;;5039766;27;86559;-59
2023/01/22 05:36:11;;;;;;;1.30;0.40;;;24.70;41.50;;;;;;5040576;28;88045;-59
2023/01/22 05:38:39;;;;;;;0.40;0.40;;;24.60;41.30;;;;;;5040306;27;87798;-59
2023/01/22 05:41:07;;;;;;;0.40;0.40;;;24.60;41.30;;;;;;5040753;27;87907;-59
2023/01/22 05:43:36;;;;;;;0.40;0.40;;;24.50;41.10;;;;;;5041199;28;87037;-59
2023/01/22 05:46:05;;;;;;;0.50;0.40;;;24.40;41.00;;;;;;5040062;27;89069;-59
2023/01/22 05:48:34;;;;;;;0.73;0.60;;;24.40;41.00;;;;;;5039894;27;87860;-59
2023/01/22 05:51:03;;;;;;;0.67;0.40;;;24.30;40.80;;;;;;5041190;28;86956;-59
2023/01/22 05:53:31;;;;;;;0.67;0.60;;;24.20;40.70;;;;;;5038664;28;87008;-60
2023/01/22 05:56:01;;;;;;;0.80;0.60;;;24.20;40.70;;;;;;5020185;28;87692;-59
2023/01/22 05:58:29;;;;;;;0.30;0.30;;;24.10;40.60;;;;;;5028717;28;88986;-59
2023/01/22 06:00:57;;;;;;;0.70;0.70;;;24.00;40.40;;;;;;5041045;27;87128;-59
2023/01/22 06:03:25;;;;;;;0.47;0.47;;;23.90;40.30;;;;;;5039717;28;87393;-58
2023/01/22 06:06:01;;;;;;;0.43;0.43;;;23.90;40.20;;;;;;5037084;28;89035;-59
2023/01/22 06:08:29;;;;;;;0.70;0.70;;;23.80;40.20;;;;;;5026887;28;87650;-60
2023/01/22 06:11:00;;;;;;;1.10;0.70;;;23.80;40.10;;;;;;5040212;28;87062;-59
2023/01/22 06:13:28;;;;;;;1.23;0.40;;;23.70;40.00;;;;;;5039769;28;87004;-59
2023/01/22 06:15:56;;;;;;;0.80;0.80;;;23.70;40.00;;;;;;5039587;28;88346;-59
2023/01/22 06:18:24;;;;;;;0.50;0.50;;;23.70;40.00;;;;;;5039539;28;87764;-59
2023/01/22 06:20:52;;;;;;;0.53;0.53;;;23.70;40.00;;;;;;5039989;27;87096;-58
2023/01/22 06:23:21;;;;;;;0.50;0.50;;;23.60;39.90;;;;;;5039720;27;86201;-58
2023/01/22 06:25:52;;;;;;;0.37;0.37;;;23.50;39.80;;;;;;5029094;28;89085;-61
2023/01/22 06:28:20;;;;;;;0.40;0.40;;;23.50;39.80;;;;;;5039968;27;88237;-59
2023/01/22 06:30:48;;;;;;;1.30;0.57;;;23.50;39.80;;;;;;5039284;28;87967;-59
2023/01/22 06:33:16;;;;;;;0.80;0.70;;;23.50;39.80;;;;;;5035413;28;87155;-58
2023/01/22 06:35:44;;;;;;;1.23;0.63;;;23.40;39.70;;;;;;5031852;28;89183;-59
2023/01/22 06:38:12;;;;;;;1.20;1.10;;;23.30;39.70;;;;;;5032587;28;87146;-59
2023/01/22 06:40:41;;;;;;;1.63;0.90;;;23.30;39.70;;;;;;5035718;28;87022;-59
2023/01/22 06:43:09;;;;;;;1.77;0.70;;;23.30;39.70;;;;;;5038120;28;87043;-59
2023/01/22 06:45:38;;;;;;;0.97;0.90;;;23.20;39.60;;;;;;5031663;28;88659;-60
2023/01/22 06:48:06;;;;;;;1.63;1.07;;;23.20;39.50;;;;;;5039100;28;87305;-59
2023/01/22 06:50:34;;;;;;;1.20;1.10;;;23.20;39.60;;;;;;5029921;28;87597;-59
2023/01/22 06:53:02;;;;;;;1.87;1.20;;;23.10;39.50;;;;;;5033158;28;87551;-59
2023/01/22 06:55:30;;;;;;;1.57;1.43;;;23.10;39.50;;;;;;5038082;28;89091;-59
2023/01/22 06:57:59;;;;;;;1.37;1.27;;;23.10;39.50;;;;;;5038210;27;88908;-59
2023/01/22 07:00:27;;;;;;;1.37;1.10;;;23.00;39.40;;;;;;5040909;28;88176;-59
2023/01/22 07:02:55;;;;;;;1.87;1.67;;;23.00;39.40;;;;;;5041986;28;87202;-59
2023/01/22 07:05:24;;;;;;;2.33;1.57;;;22.90;39.30;;;;;;5039416;28;88390;-60
2023/01/22 07:07:53;;;;;;;3.90;1.50;;;22.90;39.30;;;;;;5041993;27;87803;-59
2023/01/22 07:10:21;;;;;;;1.57;1.40;;;22.90;39.30;;;;;;5035172;28;87009;-59
2023/01/22 07:12:49;;;;;;;5.43;1.60;;;22.90;39.30;;;;;;5034442;28;86733;-59
2023/01/22 07:15:18;;;;;;;2.13;1.43;;;22.80;39.20;;;;;;5035708;28;89085;-58
2023/01/22 07:17:49;;;;;;;1.83;1.20;;;22.80;39.30;;;;;;5041402;27;87123;-58
2023/01/22 07:20:18;;;;;;;2.77;1.70;;;22.80;39.20;;;;;;5036957;27;88235;-58
2023/01/22 07:22:46;;;;;;;2.07;1.40;;;22.70;39.10;;;;;;5041341;27;87072;-58
2023/01/22 07:25:14;;;;;;;2.00;1.50;;;22.70;39.10;;;;;;5040355;27;87610;-57
2023/01/22 07:27:42;;;;;;;1.70;1.10;;;22.70;39.10;;;;;;5041822;28;87123;-57
2023/01/22 07:30:11;;;;;;;2.70;1.43;;;22.60;39.10;;;;;;5039349;28;87471;-58
2023/01/22 07:32:41;;;;;;;1.13;1.00;;;22.60;39.10;;;;;;5040464;27;87162;-58
2023/01/22 07:35:09;;;;;;;5.20;1.40;;;22.60;39.20;;;;;;5040072;27;88067;-57
2023/01/22 07:37:37;;;;;;;1.73;1.50;;;22.60;39.20;;;;;;5041001;28;87539;-56
2023/01/22 07:40:07;;;;;;;1.40;1.30;;;22.50;39.40;;;;;;5041245;27;88073;-56
2023/01/22 07:42:35;;;;;;;1.67;1.33;;;22.50;39.30;;;;;;5039838;27;87204;-56
2023/01/22 07:45:06;;;;;;;3.17;1.90;;;22.50;39.40;;;;;;5037437;28;89902;-56
2023/01/22 07:47:34;;;;;;;1.70;1.30;;;22.50;39.60;;;;;;5038358;27;88819;-58
2023/01/22 07:50:04;;;;;;;1.53;1.30;;;22.50;39.60;;;;;;5032829;28;87066;-57
2023/01/22 07:52:32;;;;;;;2.23;1.40;;;22.50;39.70;;;;;;5041692;28;86999;-58
2023/01/22 07:55:00;;;;;;;2.50;0.97;;;22.50;39.80;;;;;;5038910;28;88377;-56
2023/01/22 07:57:28;;;;;;;4.30;1.17;;;22.50;39.90;;;;;;5040990;27;88003;-56
2023/01/22 07:59:56;;;;;;;2.30;1.67;;;22.50;40.00;;;;;;5037066;27;87132;-56
2023/01/22 08:02:24;;;;;;;1.90;1.67;;;22.40;40.00;;;;;;5040213;28;87666;-56
2023/01/22 08:04:52;;;;;;;1.40;1.30;;;22.40;40.00;;;;;;5040431;28;89780;-57
2023/01/22 08:07:22;;;;;;;1.80;1.33;;;22.40;40.10;;;;;;5039825;28;87663;-56
2023/01/22 08:09:50;;;;;;;1.93;1.70;;;22.40;40.20;;;;;;5040253;27;88060;-56
2023/01/22 08:12:18;;;;;;;2.07;1.50;;;22.40;40.30;;;;;;5040208;28;87378;-56
2023/01/22 08:14:46;;;;;;;4.33;1.70;;;22.40;40.30;;;;;;5040164;28;89146;-56
2023/01/22 08:17:14;;;;;;;5.23;2.30;;;22.30;40.30;;;;;;5040620;28;89041;-58
2023/01/22 08:19:42;;;;;;;4.90;2.10;;;22.30;40.30;;;;;;5041694;28;86982;-58
2023/01/22 08:22:10;;;;;;;2.73;2.40;;;22.30;40.40;;;;;;5042024;28;86944;-58
2023/01/22 08:24:41;;;;;;;2.77;1.90;;;22.30;40.40;;;;;;5040379;28;87443;-58
2023/01/22 08:27:09;;;;;;;3.07;1.90;;;22.30;40.40;;;;;;5041185;28;87946;-58
2023/01/22 08:29:37;;;;;;;3.60;2.37;;;22.20;40.30;;;;;;5041114;28;86993;-57
2023/01/22 08:32:06;;;;;;;2.97;1.93;;;22.30;40.30;;;;;;5040270;28;87147;-57
2023/01/22 08:34:34;;;;;;;1.73;1.60;;;22.30;40.30;;;;;;5040271;28;88735;-60
2023/01/22 08:37:02;;;;;;;2.47;2.17;;;22.40;40.30;;;;;;5039943;28;89852;-58
2023/01/22 08:39:30;;;;;;;3.60;2.30;;;22.50;40.30;;;;;;5041100;28;87075;-58
2023/01/22 08:41:59;;;;;;;2.97;2.43;;;22.60;40.20;;;;;;5039084;28;87619;-56
2023/01/22 08:44:27;;;;;;;2.40;1.83;;;22.80;40.20;;;;;;5037371;28;89198;-58
2023/01/22 08:46:55;;;;;;;5.30;2.00;;;22.90;40.10;;;;;;5038563;28;87847;-58
2023/01/22 08:49:24;;;;;;;6.00;2.33;;;23.10;40.00;;;;;;5040553;28;87363;-58
2023/01/22 08:51:52;;;;;;;3.33;2.03;;;23.30;39.90;;;;;;5041539;28;86280;-58
2023/01/22 08:54:20;;;;;;;3.03;2.07;;;23.50;39.80;;;;;;5040889;28;88110;-58
2023/01/22 08:56:48;;;;;;;3.60;2.20;;;23.70;39.80;;;;;;5040365;28;88667;-58
2023/01/22 08:59:17;;;;;;;1.97;1.70;;;23.90;39.70;;;;;;5040406;27;87985;-58
2023/01/22 09:01:45;;;;;;;2.63;1.70;;;24.00;39.50;;;;;;5040463;28;87107;-58
2023/01/22 09:04:13;;;;;;;3.57;1.80;;;24.10;39.40;;;;;;5040557;28;89088;-58
2023/01/22 09:06:41;;;;;;;2.43;1.67;;;24.10;39.30;;;;;;5039191;27;87141;-58
2023/01/22 09:09:09;;;;;;;3.10;2.23;;;24.10;39.20;;;;;;5040114;28;87096;-58
2023/01/22 09:11:37;;;;;;;4.90;2.97;;;24.10;39.10;;;;;;5036157;28;87030;-58
2023/01/22 09:14:07;;;;;;;2.43;1.33;;;24.10;39.10;;;;;;5039091;28;89090;-58
2023/01/22 09:16:36;;;;;;;2.50;2.00;;;24.10;39.10;;;;;;5030161;28;86668;-58
2023/01/22 09:19:04;;;;;;;2.40;2.13;;;24.10;39.10;;;;;;5038788;27;87037;-56
2023/01/22 09:21:35;;;;;;;2.07;1.63;;;24.20;39.20;;;;;;5028667;27;87101;-58
2023/01/22 09:24:03;;;;;;;3.57;2.13;;;24.20;39.10;;;;;;5036681;28;89292;-58
2023/01/22 09:26:32;;;;;;;4.27;2.00;;;24.30;39.10;;;;;;5036841;28;88685;-58
2023/01/22 09:29:02;;;;;;;4.73;2.30;;;24.40;39.10;;;;;;5039255;28;87359;-57
2023/01/22 09:31:31;;;;;;;5.17;2.20;;;24.50;39.00;;;;;;5037378;28;87160;-58
2023/01/22 09:34:00;;;;;;;3.00;1.57;;;24.60;39.00;;;;;;5036470;28;88191;-58
2023/01/22 09:36:28;;;;;;;2.00;1.50;;;24.70;38.90;;;;;;5035941;28;87933;-58
2023/01/22 09:38:56;;;;;;;2.90;2.00;;;24.90;38.90;;;;;;5037798;27;87136;-58
2023/01/22 09:41:26;;;;;;;2.63;2.03;;;25.00;38.70;;;;;;5039220;27;86356;-58
2023/01/22 09:43:56;;;;;;;2.50;1.67;;;25.10;38.60;;;;;;5038492;28;89098;-57
2023/01/22 09:46:27;;;;;;;2.77;1.40;;;25.10;38.50;;;;;;5025747;27;88053;-57
2023/01/22 09:48:57;;;;;;;1.60;1.50;;;25.10;38.50;;;;;;5035265;28;88010;-57
2023/01/22 09:51:27;;;;;;;2.70;1.67;;;25.10;38.50;;;;;;5039674;27;87116;-58
2023/01/22 09:53:57;;;;;;;3.73;1.73;;;25.10;38.40;;;;;;5036573;28;88048;-57
2023/01/22 09:56:29;;;;;;;2.43;1.70;;;25.10;38.40;;;;;;5038559;28;87692;-57
2023/01/22 09:58:57;;;;;;;2.73;1.77;;;25.10;38.40;;;;;;5036225;28;88574;-57
2023/01/22 10:01:25;;;;;;;2.47;1.87;;;25.20;38.40;;;;;;5035230;28;87124;-57
2023/01/22 10:03:55;;;;;;;2.30;1.67;;;25.20;38.30;;;;;;5039487;27;88173;-57
2023/01/22 10:06:24;;;;;;;2.50;2.00;;;25.30;38.20;;;;;;5035606;28;87938;-57
2023/01/22 10:08:57;;;;;;;2.37;1.50;;;25.40;38.10;;;;;;5039167;28;87062;-58
2023/01/22 10:11:25;;;;;;;3.27;1.87;;;25.50;38.00;;;;;;5035575;28;87052;-57
2023/01/22 10:13:55;;;;;;;4.03;1.60;;;25.60;37.90;;;;;;5036385;27;90221;-57
2023/01/22 10:16:23;;;;;;;2.67;1.93;;;25.70;37.80;;;;;;5032801;28;88874;-57
2023/01/22 10:18:53;;;;;;;3.83;2.10;;;25.70;37.70;;;;;;5036879;28;87143;-58
2023/01/22 10:21:26;;;;;;;2.23;1.50;;;25.80;37.60;;;;;;5038058;28;87204;-56
2023/01/22 10:23:56;;;;;;;2.90;1.90;;;25.90;37.60;;;;;;5038365;27;89071;-57
2023/01/22 10:26:29;;;;;;;2.70;1.87;;;26.00;37.50;;;;;;5035562;28;88108;-57
2023/01/22 10:28:58;;;;;;;4.20;2.23;;;26.10;37.40;;;;;;5038992;27;87137;-57
2023/01/22 10:31:27;;;;;;;3.10;2.00;;;26.10;37.30;;;;;;5035555;28;86699;-57
2023/01/22 10:33:57;;;;;;;4.13;2.20;;;26.20;37.20;;;;;;5039220;28;89215;-57
2023/01/22 10:36:25;;;;;;;3.43;2.20;;;26.20;37.20;;;;;;5038874;28;87823;-57
2023/01/22 10:39:04;;;;;;;2.57;2.10;;;26.20;37.20;;;;;;5041154;27;88117;-57
2023/01/22 10:41:32;;;;;;;3.43;2.10;;;26.10;37.20;;;;;;5041293;27;86949;-58
2023/01/22 10:44:17;;;;;;;2.97;2.40;;;26.10;37.20;;;;;;5041906;28;88008;-57
2023/01/22 10:46:48;;;;;;;2.27;1.77;;;25.90;37.20;;;;;;5039288;28;87854;-59
2023/01/22 10:49:17;;;;;;;4.23;2.33;;;25.90;37.30;;;;;;5042080;27;87071;-59
2023/01/22 10:51:46;;;;;;;8.00;2.63;;;25.80;37.30;;;;;;5040061;28;87209;-60
2023/01/22 10:54:20;;;;;;;5.17;2.20;;;25.80;37.40;;;;;;5041849;28;89054;-54
2023/01/22 10:56:48;;;;;;;4.53;2.70;;;25.70;37.50;;;;;;5039957;28;86921;-56
2023/01/22 10:59:21;;;;;;;11.07;3.40;;;25.70;38.30;;;;;;5042035;28;87046;-59
2023/01/22 11:01:54;;;;;;;12.00;4.63;;;25.60;37.70;;;;;;5039347;28;87750;-56
2023/01/22 11:04:23;;;;;;;11.13;4.60;;;25.60;38.50;;;;;;5041143;28;89076;-57
2023/01/22 11:06:53;;;;;;;11.93;4.97;;;25.50;38.10;;;;;;5042042;28;89958;-57
2023/01/22 11:09:24;;;;;;;14.10;5.17;;;25.50;38.50;;;;;;5041277;28;87075;-59
2023/01/22 11:11:56;;;;;;;9.93;4.80;;;25.40;38.80;;;;;;5040647;28;87523;-57
2023/01/22 11:14:27;;;;;;;10.30;4.20;;;25.30;38.90;;;;;;5041413;28;89128;-57
2023/01/22 11:16:58;;;;;;;10.90;4.30;;;25.30;39.10;;;;;;5041532;27;88025;-56
2023/01/22 11:19:29;;;;;;;9.70;2.67;;;25.20;39.20;;;;;;5030962;28;88647;-57
2023/01/22 11:22:06;;;;;;;6.17;3.53;;;25.20;39.40;;;;;;5039860;28;86406;-56
2023/01/22 11:24:36;;;;;;;9.00;3.13;;;25.20;39.50;;;;;;5040767;28;88060;-56
2023/01/22 11:27:13;;;;;;;6.70;2.93;;;25.20;39.50;;;;;;5041844;27;88162;-56
2023/01/22 11:30:01;;;;;;;5.17;3.13;;;25.20;39.50;;;;;;5037564;28;88035;-56
2023/01/22 11:32:46;;;;;;;7.23;3.40;;;25.30;40.20;;;;;;5040665;27;87099;-56
2023/01/22 11:35:19;;;;;;;7.60;2.73;;;25.40;39.40;;;;;;5040287;28;88241;-56
2023/01/22 11:37:57;;;;;;;4.53;2.77;;;25.50;39.30;;;;;;5045599;27;87778;-61
2023/01/22 11:40:27;;;;;;;6.33;2.80;;;25.70;39.30;;;;;;5040113;28;87055;-58
2023/01/22 11:43:20;;;;;;;4.00;2.07;;;25.80;39.10;;;;;;5035494;27;87695;-60
2023/01/22 11:46:06;;;;;;;6.87;2.33;;;25.90;39.00;;;;;;5039511;28;88071;-59
2023/01/22 11:48:41;;;;;;;5.20;2.13;;;25.90;38.90;;;;;;5034937;27;87801;-61
2023/01/22 11:51:19;;;;;;;2.63;1.83;;;25.90;38.80;;;;;;5039693;28;87079;-59
2023/01/22 11:54:05;;;;;;;11.57;2.63;;;25.90;38.70;;;;;;5039391;28;87489;-60
2023/01/22 11:56:44;;;;;;;6.77;2.77;;;25.80;38.70;;;;;;5034516;27;89082;-56
2023/01/22 11:59:15;;;;;;;4.33;2.67;;;25.80;38.70;;;;;;5036151;27;88896;-58
2023/01/22 12:01:58;;;;;;;4.10;2.30;;;25.70;38.80;;;;;;5042020;27;87125;-58
2023/01/22 12:04:43;;;;;;;2.43;1.93;;;25.70;38.90;;;;;;5040847;28;87136;-59
2023/01/22 12:07:35;;;;;;;5.67;1.97;;;25.60;38.90;;;;;;5040498;28;88405;-60
2023/01/22 12:10:24;;;;;;;4.60;1.63;;;25.60;39.00;;;;;;5035893;28;88781;-59
2023/01/22 12:12:58;;;;;;;4.37;2.27;;;25.40;39.00;;;;;;5037153;28;87214;-59
2023/01/22 12:15:33;;;;;;;3.33;2.10;;;25.40;39.10;;;;;;5038826;28;87086;-60
2023/01/22 12:18:25;;;;;;;5.00;2.03;;;25.30;39.10;;;;;;5040611;28;89218;-59
2023/01/22 12:21:04;;;;;;;3.13;2.00;;;25.20;39.10;;;;;;5039268;28;87806;-60
2023/01/22 12:23:34;;;;;;;3.10;1.70;;;25.20;39.20;;;;;;5039104;27;88145;-60
2023/01/22 12:26:04;;;;;;;3.57;1.77;;;25.10;39.20;;;;;;5036443;27;87104;-56
2023/01/22 12:28:36;;;;;;;6.50;2.20;;;25.10;39.30;;;;;;5037258;28;89209;-61
2023/01/22 12:31:07;;;;;;;3.27;2.00;;;25.10;39.30;;;;;;5038367;28;89025;-61
2023/01/22 12:33:39;;;;;;;2.17;1.93;;;25.00;39.20;;;;;;5039894;28;87261;-60
2023/01/22 12:36:11;;;;;;;2.30;1.80;;;25.10;39.30;;;;;;5037618;28;87046;-60
2023/01/22 12:38:42;;;;;;;2.20;1.53;;;25.20;39.20;;;;;;5039693;28;88350;-60
2023/01/22 12:41:38;;;;;;;2.20;1.87;;;25.30;39.20;;;;;;5040828;28;87407;-60
2023/01/22 12:44:14;;;;;;;4.90;1.70;;;25.40;39.10;;;;;;5039311;28;87081;-60
2023/01/22 12:46:49;;;;;;;2.67;1.63;;;25.50;39.00;;;;;;5040649;28;87588;-60
2023/01/22 12:49:19;;;;;;;2.70;1.63;;;25.70;38.90;;;;;;5040775;28;89009;-60
2023/01/22 12:51:48;;;;;;;2.47;1.73;;;25.80;38.80;;;;;;5039091;27;89962;-60
2023/01/22 12:54:20;;;;;;;1.87;1.47;;;25.80;38.70;;;;;;5038979;28;88268;-60
2023/01/22 12:56:49;;;;;;;2.93;2.00;;;25.90;38.60;;;;;;5037127;27;87154;-60
2023/01/22 12:59:32;;;;;;;2.87;1.73;;;25.90;38.60;;;;;;5040166;27;89058;-60
2023/01/22 13:02:04;;;;;;;1.80;1.27;;;25.80;38.50;;;;;;5039464;28;87725;-60
2023/01/22 13:04:32;;;;;;;2.50;1.80;;;25.80;38.50;;;;;;5037582;28;87001;-60
2023/01/22 13:07:05;;;;;;;1.67;1.30;;;25.80;38.50;;;;;;5041242;27;86831;-60